createdAt,value
2019-02-21T00:00:39.090Z,6.80
2019-02-21T00:03:10.295Z,6.70
2019-02-21T00:06:02.967Z,6.70
2019-02-21T00:08:33.605Z,6.70
2019-02-21T00:11:03.982Z,6.80
2019-02-21T00:13:34.359Z,6.70
2019-02-21T00:16:05.807Z,6.70
2019-02-21T00:18:37.314Z,6.80
2019-02-21T00:21:07.642Z,6.80
2019-02-21T00:23:38.082Z,6.80
2019-02-21T00:26:08.465Z,6.70
2019-02-21T00:28:39.617Z,6.70
2019-02-21T00:31:10.079Z,6.70
2019-02-21T00:33:46.604Z,6.80
2019-02-21T00:36:17.038Z,6.90
2019-02-21T00:38:48.201Z,6.80
2019-02-21T00:41:18.586Z,6.80
2019-02-21T00:43:49.317Z,6.70
2019-02-21T00:46:19.708Z,6.70
2019-02-21T00:48:57.387Z,6.80
2019-02-21T00:51:27.961Z,6.80
2019-02-21T00:53:58.336Z,6.80
2019-02-21T00:56:28.728Z,6.70
2019-02-21T00:59:00.315Z,6.70
2019-02-21T01:01:30.964Z,6.70
2019-02-21T01:04:01.346Z,6.60
2019-02-21T01:06:31.676Z,6.60
2019-02-21T01:09:02.842Z,6.70
2019-02-21T01:11:33.237Z,6.70
2019-02-21T01:14:04.686Z,6.80
2019-02-21T01:16:35.270Z,6.80
2019-02-21T01:19:05.851Z,6.60
2019-02-21T01:21:36.300Z,6.60
2019-02-21T01:24:07.644Z,6.50
2019-02-21T01:26:38.017Z,6.60
2019-02-21T01:29:14.580Z,6.70
2019-02-21T01:31:46.959Z,6.60
2019-02-21T01:34:21.528Z,6.80
2019-02-21T01:36:52.088Z,6.70
2019-02-21T01:39:24.443Z,6.60
2019-02-21T01:41:55.795Z,6.60
2019-02-21T01:44:26.984Z,6.40
2019-02-21T01:46:57.377Z,6.40
2019-02-21T01:49:27.758Z,6.40
2019-02-21T01:51:58.151Z,6.40
2019-02-21T01:54:28.621Z,6.30
2019-02-21T01:57:00.725Z,6.30
2019-02-21T01:59:33.681Z,6.30
2019-02-21T02:02:04.069Z,6.20
2019-02-21T02:04:37.706Z,6.30
2019-02-21T02:07:09.146Z,6.30
2019-02-21T02:09:39.539Z,6.30
2019-02-21T02:12:09.946Z,6.40
2019-02-21T02:14:41.109Z,6.20
2019-02-21T02:17:11.769Z,6.20
2019-02-21T02:19:49.461Z,6.20
2019-02-21T02:22:26.437Z,6.10
2019-02-21T02:25:03.923Z,6.20
2019-02-21T02:27:34.367Z,6.40
2019-02-21T02:30:26.177Z,6.30
2019-02-21T02:32:56.504Z,6.50
2019-02-21T02:35:28.990Z,6.50
2019-02-21T02:37:59.363Z,6.30
2019-02-21T02:40:30.463Z,6.20
2019-02-21T02:43:02.941Z,6.20
2019-02-21T02:45:40.635Z,6.20
2019-02-21T02:48:11.084Z,6.20
2019-02-21T02:50:41.493Z,6.30
2019-02-21T02:53:31.374Z,6.30
2019-02-21T02:56:01.791Z,6.20
2019-02-21T02:58:32.836Z,6.10
2019-02-21T03:01:08.378Z,6.10
2019-02-21T03:03:38.772Z,6.30
2019-02-21T03:06:09.931Z,6.20
2019-02-21T03:08:40.320Z,6.20
2019-02-21T03:13:53.450Z,6.20
2019-02-21T03:16:23.829Z,6.10
2019-02-21T03:18:54.414Z,6.00
2019-02-21T03:21:24.813Z,6.10
2019-02-21T03:23:57.239Z,6.20
2019-02-21T03:26:27.672Z,6.00
2019-02-21T03:28:58.827Z,5.90
2019-02-21T03:31:29.428Z,6.00
2019-02-21T03:33:59.814Z,5.70
2019-02-21T03:36:30.262Z,5.70
2019-02-21T03:39:00.649Z,5.80
2019-02-21T03:41:31.067Z,5.90
2019-02-21T03:44:01.610Z,6.00
2019-02-21T03:46:32.228Z,6.10
2019-02-21T03:49:02.812Z,6.10
2019-02-21T03:51:33.189Z,6.00
2019-02-21T03:54:03.837Z,6.00
2019-02-21T03:56:34.270Z,6.00
2019-02-21T03:59:06.925Z,6.00
2019-02-21T04:01:38.190Z,6.00
2019-02-21T04:04:08.514Z,6.00
2019-02-21T04:06:38.959Z,6.00
2019-02-21T04:09:28.723Z,6.00
2019-02-21T04:11:59.342Z,6.00
2019-02-21T04:14:29.742Z,6.00
2019-02-21T04:17:00.122Z,6.10
2019-02-21T04:19:30.577Z,6.00
2019-02-21T04:22:01.007Z,6.00
2019-02-21T04:24:31.582Z,5.90
2019-02-21T04:27:01.973Z,5.90
2019-02-21T04:29:36.204Z,5.90
2019-02-21T04:32:16.656Z,5.70
2019-02-21T04:34:36.944Z,5.70
2019-02-21T04:37:07.374Z,5.90
2019-02-21T04:39:37.745Z,5.90
2019-02-21T04:42:08.078Z,5.80
2019-02-21T04:44:42.624Z,5.80
2019-02-21T04:47:32.398Z,5.90
2019-02-21T04:50:06.872Z,5.70
2019-02-21T04:52:38.121Z,5.90
2019-02-21T04:55:15.766Z,5.90
2019-02-21T04:57:50.308Z,5.70
2019-02-21T05:00:20.697Z,5.80
2019-02-21T05:02:53.195Z,5.90
2019-02-21T05:05:23.766Z,5.90
2019-02-21T05:07:54.928Z,5.90
2019-02-21T05:10:25.312Z,5.90
2019-02-21T05:12:55.762Z,5.80
2019-02-21T05:15:26.852Z,5.50
2019-02-21T05:18:01.330Z,5.50
2019-02-21T05:20:31.716Z,5.70
2019-02-21T05:23:02.115Z,5.70
2019-02-21T05:25:32.543Z,5.70
2019-02-21T05:28:03.190Z,5.60
2019-02-21T05:30:36.188Z,5.60
2019-02-21T05:33:03.888Z,5.60
2019-02-21T05:35:37.066Z,5.70
2019-02-21T05:38:16.185Z,5.70
2019-02-21T05:40:46.589Z,5.60
2019-02-21T05:43:32.945Z,5.60
2019-02-21T05:46:04.097Z,5.70
2019-02-21T05:48:46.838Z,5.70
2019-02-21T05:51:17.415Z,5.70
2019-02-21T05:54:08.580Z,5.60
2019-02-21T05:56:56.406Z,5.70
2019-02-21T05:59:44.529Z,5.60
2019-02-21T06:02:33.614Z,5.80
2019-02-21T06:05:08.807Z,5.80
2019-02-21T06:07:55.333Z,5.80
2019-02-21T06:10:44.327Z,5.60
2019-02-21T06:13:29.902Z,5.60
2019-02-21T06:16:00.335Z,5.60
2019-02-21T06:18:45.496Z,5.70
2019-02-21T06:21:25.561Z,5.70
2019-02-21T06:26:44.694Z,5.50
2019-02-21T06:29:15.081Z,5.50
2019-02-21T06:31:45.532Z,5.30
2019-02-21T06:34:36.252Z,5.30
2019-02-21T06:37:07.920Z,5.40
2019-02-21T06:39:38.288Z,5.40
2019-02-21T06:42:08.677Z,5.50
2019-02-21T06:44:39.120Z,5.50
2019-02-21T06:47:10.267Z,5.30
2019-02-21T06:49:41.435Z,6.10
2019-02-21T06:52:12.075Z,6.10
2019-02-21T06:54:42.509Z,5.60
2019-02-21T06:57:20.119Z,5.50
2019-02-21T07:00:11.923Z,5.50
2019-02-21T07:02:42.504Z,5.30
2019-02-21T07:05:12.821Z,5.40
2019-02-21T07:07:43.151Z,5.40
2019-02-21T07:10:13.592Z,5.50
2019-02-21T07:12:44.750Z,5.30
2019-02-21T07:15:15.926Z,5.40
2019-02-21T07:17:49.609Z,5.40
2019-02-21T07:20:17.986Z,5.80
2019-02-21T07:22:48.395Z,5.80
2019-02-21T07:25:19.809Z,5.50
2019-02-21T07:27:51.293Z,5.50
2019-02-21T07:30:23.284Z,5.50
2019-02-21T07:33:13.879Z,5.60
2019-02-21T07:35:50.084Z,6.00
2019-02-21T07:38:20.526Z,5.70
2019-02-21T07:40:56.964Z,5.70
2019-02-21T07:43:27.409Z,5.50
2019-02-21T07:45:57.742Z,5.60
2019-02-21T07:48:28.196Z,5.50
2019-02-21T07:50:58.579Z,5.40
2019-02-21T07:53:33.139Z,5.40
2019-02-21T07:56:03.537Z,5.50
2019-02-21T07:58:36.014Z,5.60
2019-02-21T08:01:28.543Z,5.80
2019-02-21T08:03:58.897Z,5.80
2019-02-21T08:06:29.292Z,5.80
2019-02-21T08:08:59.900Z,6.00
2019-02-21T08:11:31.122Z,6.10
2019-02-21T08:14:01.568Z,6.10
2019-02-21T08:16:31.961Z,6.20
2019-02-21T08:19:02.398Z,6.20
2019-02-21T08:21:33.052Z,6.30
2019-02-21T08:24:03.434Z,6.40
2019-02-21T08:26:34.768Z,6.50
2019-02-21T08:29:06.138Z,6.40
2019-02-21T08:31:36.313Z,6.60
2019-02-21T08:34:09.376Z,6.60
2019-02-21T08:36:39.767Z,6.60
2019-02-21T08:39:33.424Z,6.50
2019-02-21T08:42:05.876Z,6.50
2019-02-21T08:44:36.311Z,6.10
2019-02-21T08:47:06.691Z,6.30
2019-02-21T08:49:37.080Z,6.60
2019-02-21T08:52:07.787Z,6.90
2019-02-21T08:54:38.174Z,7.00
2019-02-21T08:57:08.561Z,7.10
2019-02-21T08:59:38.961Z,7.10
2019-02-21T09:02:10.153Z,7.20
2019-02-21T09:04:40.549Z,7.20
2019-02-21T09:07:10.942Z,7.20
2019-02-21T09:09:41.376Z,7.10
2019-02-21T09:12:12.546Z,7.30
2019-02-21T09:14:42.943Z,7.30
2019-02-21T09:17:13.389Z,7.50
2019-02-21T09:19:44.548Z,7.00
2019-02-21T09:22:14.940Z,7.00
2019-02-21T09:24:46.355Z,6.90
2019-02-21T09:27:16.692Z,7.10
2019-02-21T09:29:47.123Z,7.30
2019-02-21T09:32:17.529Z,7.50
2019-02-21T09:34:50.412Z,7.50
2019-02-21T09:37:21.194Z,7.60
2019-02-21T09:39:51.570Z,7.60
2019-02-21T09:42:25.165Z,7.50
2019-02-21T09:44:55.610Z,7.60
2019-02-21T09:47:45.369Z,7.80
2019-02-21T09:50:15.880Z,7.90
2019-02-21T09:52:47.041Z,8.10
2019-02-21T09:55:17.372Z,8.00
2019-02-21T09:57:47.839Z,8.10
2019-02-21T10:00:20.786Z,8.20
2019-02-21T10:02:55.609Z,8.40
2019-02-21T10:05:21.747Z,8.40
2019-02-21T10:07:52.195Z,8.50
2019-02-21T10:10:42.137Z,8.60
2019-02-21T10:13:13.389Z,8.70
2019-02-21T10:15:42.979Z,8.80
2019-02-21T10:18:14.127Z,9.00
2019-02-21T10:20:45.361Z,9.00
2019-02-21T10:23:15.792Z,9.00
2019-02-21T10:25:46.959Z,9.10
2019-02-21T10:28:18.067Z,9.20
2019-02-21T10:31:02.611Z,9.20
2019-02-21T10:33:33.712Z,9.30
2019-02-21T10:36:04.101Z,9.30
2019-02-21T10:38:34.530Z,9.50
2019-02-21T10:41:05.109Z,9.50
2019-02-21T10:46:30.143Z,9.60
2019-02-21T10:48:58.354Z,9.60
2019-02-21T10:51:28.731Z,9.70
2019-02-21T10:53:59.436Z,9.70
2019-02-21T10:56:30.601Z,9.60
2019-02-21T10:59:00.989Z,9.60
2019-02-21T11:01:31.429Z,9.60
2019-02-21T11:04:02.954Z,9.60
2019-02-21T11:06:34.121Z,9.60
2019-02-21T11:09:04.451Z,9.60
2019-02-21T11:11:35.775Z,9.80
2019-02-21T11:14:06.398Z,9.80
2019-02-21T11:16:36.789Z,9.80
2019-02-21T11:19:07.352Z,9.90
2019-02-21T11:21:37.801Z,9.90
2019-02-21T11:24:08.184Z,9.90
2019-02-21T11:26:40.623Z,10.00
2019-02-21T11:29:11.845Z,10.10
2019-02-21T11:31:42.241Z,10.10
2019-02-21T11:34:34.821Z,10.30
2019-02-21T11:37:05.207Z,10.30
2019-02-21T11:39:42.123Z,10.30
2019-02-21T11:42:12.557Z,10.30
2019-02-21T11:44:42.956Z,10.40
2019-02-21T11:47:13.412Z,10.40
2019-02-21T11:49:43.737Z,10.50
2019-02-21T11:52:14.322Z,10.50
2019-02-21T11:54:44.751Z,10.60
2019-02-21T11:57:16.347Z,10.70
2019-02-21T11:59:48.799Z,10.70
2019-02-21T12:02:19.592Z,10.70
2019-02-21T12:04:49.927Z,10.80
2019-02-21T12:07:20.355Z,10.80
2019-02-21T12:10:08.638Z,10.70
2019-02-21T12:12:38.973Z,10.70
2019-02-21T12:15:09.466Z,10.80
2019-02-21T12:17:42.403Z,10.90
2019-02-21T12:22:55.987Z,10.90
2019-02-21T12:25:26.380Z,10.90
2019-02-21T12:27:57.786Z,10.80
2019-02-21T12:30:28.242Z,10.90
2019-02-21T12:32:58.573Z,10.90
2019-02-21T12:35:30.169Z,10.90
2019-02-21T12:37:59.352Z,11.00
2019-02-21T12:40:30.602Z,10.90
2019-02-21T12:43:01.704Z,10.90
2019-02-21T12:45:32.149Z,10.90
2019-02-21T12:48:16.603Z,10.90
2019-02-21T12:50:47.061Z,11.00
2019-02-21T12:53:18.227Z,11.10
2019-02-21T12:55:48.741Z,11.10
2019-02-21T12:58:19.946Z,11.20
2019-02-21T13:00:50.336Z,11.20
2019-02-21T13:03:22.180Z,11.30
2019-02-21T13:05:52.833Z,11.30
2019-02-21T13:08:23.217Z,11.30
2019-02-21T13:10:55.674Z,11.40
2019-02-21T13:13:26.062Z,11.40
2019-02-21T13:15:56.453Z,11.50
2019-02-21T13:18:27.592Z,11.50
2019-02-21T13:20:58.696Z,11.50
2019-02-21T13:23:32.167Z,11.50
2019-02-21T13:26:02.597Z,11.50
2019-02-21T13:28:32.922Z,11.60
2019-02-21T13:31:03.319Z,11.80
2019-02-21T13:33:34.540Z,11.60
2019-02-21T13:36:04.921Z,11.50
2019-02-21T13:38:35.327Z,11.70
2019-02-21T13:41:05.662Z,11.70
2019-02-21T13:43:36.218Z,11.70
2019-02-21T13:46:36.806Z,11.90
2019-02-21T13:48:59.430Z,11.90
2019-02-21T13:51:29.861Z,12.00
2019-02-21T13:54:00.257Z,11.90
2019-02-21T13:56:52.825Z,11.90
2019-02-21T13:59:23.214Z,11.90
2019-02-21T14:01:53.682Z,12.00
2019-02-21T14:04:24.013Z,11.90
2019-02-21T14:06:54.650Z,12.00
2019-02-21T14:09:25.075Z,11.90
2019-02-21T14:11:55.643Z,11.90
2019-02-21T14:14:26.089Z,12.00
2019-02-21T14:16:56.458Z,12.00
2019-02-21T14:19:26.848Z,12.10
2019-02-21T14:21:57.244Z,12.00
2019-02-21T14:24:36.312Z,12.00
2019-02-21T14:26:58.907Z,12.10
2019-02-21T14:29:38.843Z,12.00
2019-02-21T14:31:59.989Z,12.00
2019-02-21T14:34:31.109Z,12.20
2019-02-21T14:37:01.629Z,12.10
2019-02-21T14:39:32.772Z,12.10
2019-02-21T14:42:04.546Z,12.10
2019-02-21T14:44:35.128Z,11.90
2019-02-21T14:47:24.830Z,11.90
2019-02-21T14:49:55.251Z,12.00
2019-02-21T14:52:25.581Z,12.00
2019-02-21T14:54:55.969Z,12.00
2019-02-21T14:57:40.488Z,12.00
2019-02-21T15:00:01.893Z,12.00
2019-02-21T15:02:32.984Z,12.00
2019-02-21T15:05:04.449Z,11.90
2019-02-21T15:07:34.940Z,11.90
2019-02-21T15:10:08.145Z,12.00
2019-02-21T15:12:39.346Z,11.90
2019-02-21T15:15:17.582Z,11.90
2019-02-21T15:17:47.960Z,11.90
2019-02-21T15:20:18.533Z,12.00
2019-02-21T15:22:49.641Z,11.90
2019-02-21T15:25:24.136Z,11.90
2019-02-21T15:27:54.531Z,11.90
2019-02-21T15:30:25.685Z,12.00
2019-02-21T15:32:56.392Z,12.00
2019-02-21T15:35:26.705Z,11.90
2019-02-21T15:37:57.163Z,11.90
2019-02-21T15:40:28.312Z,11.80
2019-02-21T15:42:59.453Z,11.90
2019-02-21T15:45:30.875Z,11.90
2019-02-21T15:48:01.271Z,11.90
2019-02-21T15:50:51.016Z,11.80
2019-02-21T15:53:21.410Z,11.90
2019-02-21T15:55:51.802Z,11.80
2019-02-21T15:58:28.393Z,11.70
2019-02-21T16:00:58.726Z,11.70
2019-02-21T16:03:29.298Z,11.60
2019-02-21T16:05:59.748Z,11.70
2019-02-21T16:08:30.131Z,11.60
2019-02-21T16:11:00.567Z,11.60
2019-02-21T16:13:31.817Z,11.50
2019-02-21T16:16:04.855Z,11.50
2019-02-21T16:18:58.569Z,11.50
2019-02-21T16:21:26.053Z,11.50
2019-02-21T16:23:56.445Z,11.40
2019-02-21T16:26:26.890Z,11.40
2019-02-21T16:31:42.753Z,11.30
2019-02-21T16:34:13.168Z,11.20
2019-02-21T16:37:01.802Z,11.20
2019-02-21T16:39:23.578Z,11.20
2019-02-21T16:41:51.705Z,11.20
2019-02-21T16:44:22.085Z,11.10
2019-02-21T16:46:52.565Z,11.10
2019-02-21T16:49:22.994Z,11.00
2019-02-21T16:51:55.366Z,11.00
2019-02-21T16:54:26.828Z,11.00
2019-02-21T16:57:03.352Z,11.00
2019-02-21T16:59:33.803Z,10.90
2019-02-21T17:02:09.040Z,10.80
2019-02-21T17:04:39.477Z,10.70
2019-02-21T17:07:15.214Z,10.70
2019-02-21T17:09:40.585Z,10.60
2019-02-21T17:12:11.241Z,10.60
2019-02-21T17:14:42.582Z,10.50
2019-02-21T17:17:13.754Z,10.50
2019-02-21T17:19:44.201Z,10.50
2019-02-21T17:22:14.575Z,10.40
2019-02-21T17:24:44.957Z,10.30
2019-02-21T17:27:17.397Z,10.30
2019-02-21T17:29:48.555Z,10.30
2019-02-21T17:32:18.938Z,10.20
2019-02-21T17:34:49.265Z,10.20
2019-02-21T17:37:24.993Z,10.20
2019-02-21T17:39:50.206Z,10.20
2019-02-21T17:42:20.584Z,10.10
2019-02-21T17:44:50.983Z,10.30
2019-02-21T17:47:21.424Z,10.20
2019-02-21T17:49:51.805Z,10.10
2019-02-21T17:52:27.627Z,10.10
2019-02-21T17:54:58.061Z,10.00
2019-02-21T17:57:28.456Z,10.00
2019-02-21T17:59:59.674Z,9.90
2019-02-21T18:02:30.045Z,9.90
2019-02-21T18:05:00.773Z,9.90
2019-02-21T18:07:36.332Z,9.80
2019-02-21T18:10:02.377Z,9.80
2019-02-21T18:12:32.710Z,9.80
2019-02-21T18:15:05.079Z,9.80
2019-02-21T18:17:39.601Z,9.80
2019-02-21T18:20:10.165Z,9.80
2019-02-21T18:22:40.543Z,9.80
2019-02-21T18:25:11.188Z,9.80
2019-02-21T18:27:41.543Z,9.80
2019-02-21T18:30:14.606Z,9.80
2019-02-21T18:32:45.230Z,9.80
2019-02-21T18:35:15.547Z,9.70
2019-02-21T18:37:47.663Z,9.70
2019-02-21T18:40:22.455Z,9.70
2019-02-21T18:42:52.826Z,9.60
2019-02-21T18:45:23.277Z,9.70
2019-02-21T18:47:54.421Z,9.70
2019-02-21T18:50:24.794Z,9.70
2019-02-21T18:53:02.321Z,9.70
2019-02-21T18:55:32.701Z,9.60
2019-02-21T18:58:03.080Z,9.60
2019-02-21T19:00:35.720Z,9.50
2019-02-21T19:03:28.293Z,9.50
2019-02-21T19:05:58.798Z,9.40
2019-02-21T19:08:29.379Z,9.50
2019-02-21T19:10:59.953Z,9.40
2019-02-21T19:13:34.746Z,9.40
2019-02-21T19:16:05.149Z,9.40
2019-02-21T19:18:35.528Z,9.50
2019-02-21T19:21:05.987Z,9.50
2019-02-21T19:23:36.375Z,9.40
2019-02-21T19:26:06.845Z,9.40
2019-02-21T19:28:43.692Z,9.40
2019-02-21T19:31:14.119Z,9.40
2019-02-21T19:33:44.496Z,9.40
2019-02-21T19:36:14.891Z,9.30
2019-02-21T19:39:03.841Z,9.20
2019-02-21T19:41:40.527Z,9.10
2019-02-21T19:44:15.061Z,9.20
2019-02-21T19:46:45.498Z,9.20
2019-02-21T19:49:15.870Z,9.30
2019-02-21T19:51:46.250Z,9.30
2019-02-21T19:54:16.881Z,9.30
2019-02-21T19:56:48.586Z,9.30
2019-02-21T19:59:18.973Z,9.40
2019-02-21T20:01:49.406Z,9.30
2019-02-21T20:04:19.738Z,9.30
2019-02-21T20:06:50.877Z,9.20
2019-02-21T20:09:21.321Z,9.20
2019-02-21T20:11:52.653Z,9.20
2019-02-21T20:14:23.799Z,9.20
2019-02-21T20:16:54.209Z,9.10
2019-02-21T20:19:24.593Z,9.10
2019-02-21T20:21:54.929Z,9.10
2019-02-21T20:24:25.395Z,9.10
2019-02-21T20:26:55.809Z,9.00
2019-02-21T20:29:26.183Z,9.00
2019-02-21T20:31:56.582Z,9.10
2019-02-21T20:34:27.023Z,9.10
2019-02-21T20:37:00.269Z,9.10
2019-02-21T20:39:37.957Z,9.00
2019-02-21T20:42:27.507Z,9.10
2019-02-21T20:44:57.838Z,9.00
2019-02-21T20:47:28.459Z,9.10
2019-02-21T20:52:40.594Z,9.10
2019-02-21T20:55:13.497Z,9.10
2019-02-21T20:57:44.085Z,9.10
2019-02-21T21:00:15.301Z,9.00
2019-02-21T21:02:46.106Z,9.00
2019-02-21T21:05:21.654Z,9.00
2019-02-21T21:07:52.845Z,9.00
2019-02-21T21:10:23.164Z,8.90
2019-02-21T21:12:54.637Z,8.90
2019-02-21T21:15:25.811Z,8.90
2019-02-21T21:17:57.218Z,8.90
2019-02-21T21:20:27.660Z,8.90
2019-02-21T21:22:58.815Z,8.90
2019-02-21T21:25:31.847Z,8.70
2019-02-21T21:28:19.960Z,8.70
2019-02-21T21:30:50.346Z,9.10
2019-02-21T21:33:20.734Z,9.20
2019-02-21T21:35:55.303Z,8.90
2019-02-21T21:38:26.398Z,8.60
2019-02-21T21:41:01.947Z,8.60
2019-02-21T21:43:32.333Z,8.70
2019-02-21T21:46:03.672Z,9.00
2019-02-21T21:48:35.441Z,8.70
2019-02-21T21:51:06.789Z,8.40
2019-02-21T21:53:37.875Z,8.40
2019-02-21T21:56:27.421Z,8.30
2019-02-21T21:58:57.868Z,8.30
2019-02-21T22:01:28.262Z,8.40
2019-02-21T22:03:59.711Z,8.40
2019-02-21T22:06:30.107Z,8.40
2019-02-21T22:09:04.809Z,8.50
2019-02-21T22:11:30.872Z,8.50
2019-02-21T22:14:01.260Z,8.40
2019-02-21T22:16:31.710Z,8.40
2019-02-21T22:19:02.161Z,8.30
2019-02-21T22:21:32.549Z,8.10
2019-02-21T22:24:10.315Z,8.00
2019-02-21T22:26:40.702Z,8.00
2019-02-21T22:29:11.156Z,7.90
2019-02-21T22:31:42.561Z,7.80
2019-02-21T22:34:15.002Z,7.90
2019-02-21T22:36:45.504Z,7.80
2019-02-21T22:39:16.882Z,7.80
2019-02-21T22:41:49.122Z,7.80
2019-02-21T22:44:20.514Z,7.70
2019-02-21T22:46:50.906Z,7.70
2019-02-21T22:49:21.295Z,7.70
2019-02-21T22:51:51.662Z,7.70
2019-02-21T22:54:22.814Z,7.50
2019-02-21T22:56:53.394Z,7.50
2019-02-21T22:59:42.177Z,7.40
2019-02-21T23:02:13.587Z,7.40
2019-02-21T23:04:46.906Z,7.50
2019-02-21T23:07:23.897Z,7.50
2019-02-21T23:09:54.257Z,7.50
2019-02-21T23:12:24.636Z,7.50
2019-02-21T23:14:55.030Z,7.60
2019-02-21T23:17:28.383Z,7.70
2019-02-21T23:19:58.736Z,7.70
2019-02-21T23:22:29.117Z,7.50
2019-02-21T23:24:59.504Z,7.80
2019-02-21T23:27:29.952Z,7.80
2019-02-21T23:30:00.476Z,7.70
2019-02-21T23:32:30.853Z,7.70
2019-02-21T23:35:01.947Z,7.70
2019-02-21T23:37:32.324Z,7.70
2019-02-21T23:40:03.477Z,7.70
2019-02-21T23:42:33.867Z,7.70
2019-02-21T23:45:04.236Z,7.70
2019-02-21T23:47:34.627Z,7.60
2019-02-21T23:50:05.212Z,7.50
2019-02-21T23:52:35.653Z,7.50
2019-02-21T23:55:25.840Z,7.50
2019-02-21T23:57:59.233Z,7.50
